createdAt,value
2023-01-22T00:01:04.081Z,34.97
2023-01-22T00:03:31.962Z,42.45
2023-01-22T00:05:59.195Z,39.53
2023-01-22T00:08:26.614Z,40.95
2023-01-22T00:10:55.573Z,42.47
2023-01-22T00:13:24.580Z,43.22
2023-01-22T00:15:52.411Z,43.75
2023-01-22T00:18:20.427Z,40.65
2023-01-22T00:20:52.089Z,35.67
2023-01-22T00:23:19.989Z,40.42
2023-01-22T00:25:47.717Z,41.05
2023-01-22T00:28:16.901Z,40.38
2023-01-22T00:30:44.417Z,42.00
2023-01-22T00:33:11.792Z,36.33
2023-01-22T00:35:39.721Z,39.05
2023-01-22T00:38:07.132Z,36.85
2023-01-22T00:40:34.486Z,37.25
2023-01-22T00:43:01.864Z,33.17
2023-01-22T00:45:30.693Z,33.72
2023-01-22T00:47:58.036Z,31.30
2023-01-22T00:50:25.804Z,24.92
2023-01-22T00:52:53.189Z,21.90
2023-01-22T00:55:20.689Z,22.42
2023-01-22T00:57:47.990Z,34.00
2023-01-22T01:00:18.047Z,28.05
2023-01-22T01:03:05.493Z,24.67
2023-01-22T01:05:33.076Z,26.20
2023-01-22T01:08:00.444Z,25.58
2023-01-22T01:10:27.905Z,25.58
2023-01-22T01:12:55.186Z,25.13
2023-01-22T01:15:22.515Z,23.42
2023-01-22T01:17:49.939Z,21.88
2023-01-22T01:20:17.580Z,25.08
2023-01-22T01:22:45.295Z,25.20
2023-01-22T01:25:12.709Z,23.35
2023-01-22T01:27:42.486Z,27.58
2023-01-22T01:30:10.522Z,27.23
2023-01-22T01:32:40.217Z,27.98
2023-01-22T01:35:08.222Z,24.60
2023-01-22T01:37:35.945Z,23.90
2023-01-22T01:40:03.883Z,26.02
2023-01-22T01:42:34.644Z,25.30
2023-01-22T01:45:27.179Z,25.83
2023-01-22T01:48:02.664Z,24.58
2023-01-22T01:50:30.043Z,28.95
2023-01-22T01:53:00.017Z,28.73
2023-01-22T01:55:31.541Z,27.50
2023-01-22T01:58:04.938Z,27.70
2023-01-22T02:00:36.311Z,26.35
2023-01-22T02:03:04.405Z,26.75
2023-01-22T02:05:38.240Z,26.77
2023-01-22T02:08:08.623Z,27.98
2023-01-22T02:10:37.423Z,28.02
2023-01-22T02:13:10.232Z,29.25
2023-01-22T02:15:39.146Z,27.77
2023-01-22T02:18:07.243Z,28.58
2023-01-22T02:20:39.535Z,26.95
2023-01-22T02:23:08.385Z,28.63
2023-01-22T02:25:35.972Z,29.38
2023-01-22T02:28:03.357Z,28.38
2023-01-22T02:30:30.917Z,29.20
2023-01-22T02:32:58.798Z,27.27
2023-01-22T02:35:26.082Z,30.00
2023-01-22T02:37:53.862Z,27.15
2023-01-22T02:40:22.172Z,29.15
2023-01-22T02:42:50.078Z,24.10
2023-01-22T02:45:17.592Z,23.00
2023-01-22T02:47:45.358Z,20.38
2023-01-22T02:50:12.677Z,20.05
2023-01-22T02:52:40.751Z,22.55
2023-01-22T02:55:08.933Z,25.95
2023-01-22T02:57:36.434Z,24.23
2023-01-22T03:00:06.322Z,24.88
2023-01-22T03:02:33.855Z,23.42
2023-01-22T03:05:04.797Z,23.55
2023-01-22T03:07:42.304Z,24.88
2023-01-22T03:10:16.562Z,24.77
2023-01-22T03:13:05.179Z,25.55
2023-01-22T03:15:52.411Z,26.38
2023-01-22T03:21:16.312Z,23.92
2023-01-22T03:23:50.278Z,24.70
2023-01-22T03:26:20.223Z,24.20
2023-01-22T03:28:49.007Z,24.13
2023-01-22T03:31:17.089Z,24.80
2023-01-22T03:33:45.445Z,25.60
2023-01-22T03:36:15.202Z,25.48
2023-01-22T03:38:48.719Z,23.48
2023-01-22T03:41:20.010Z,24.20
2023-01-22T03:43:49.095Z,25.88
2023-01-22T03:46:21.073Z,25.50
2023-01-22T03:48:55.644Z,26.80
2023-01-22T03:51:24.224Z,25.38
2023-01-22T03:53:51.550Z,24.65
2023-01-22T03:56:22.600Z,21.00
2023-01-22T03:58:51.623Z,21.27
2023-01-22T04:01:22.596Z,18.90
2023-01-22T04:03:51.527Z,21.35
2023-01-22T04:06:20.232Z,19.10
2023-01-22T04:08:51.369Z,19.30
2023-01-22T04:11:21.639Z,20.60
2023-01-22T04:13:50.120Z,21.02
2023-01-22T04:16:20.688Z,20.17
2023-01-22T04:19:10.092Z,19.48
2023-01-22T04:21:37.356Z,19.15
2023-01-22T04:24:07.467Z,20.10
2023-01-22T04:26:34.704Z,18.85
2023-01-22T04:29:03.949Z,19.88
2023-01-22T04:31:31.669Z,21.98
2023-01-22T04:34:07.780Z,22.48
2023-01-22T04:36:42.282Z,20.17
2023-01-22T04:39:09.652Z,20.45
2023-01-22T04:41:37.111Z,22.00
2023-01-22T04:44:04.585Z,20.30
2023-01-22T04:46:34.002Z,21.77
2023-01-22T04:49:01.748Z,23.02
2023-01-22T04:51:30.606Z,22.73
2023-01-22T04:54:00.942Z,21.05
2023-01-22T04:56:28.186Z,21.55
2023-01-22T04:58:55.731Z,20.65
2023-01-22T05:01:23.286Z,22.00
2023-01-22T05:03:51.073Z,20.42
2023-01-22T05:06:18.425Z,24.02
2023-01-22T05:08:45.816Z,20.50
2023-01-22T05:11:13.658Z,23.27
2023-01-22T05:13:52.312Z,19.55
2023-01-22T05:16:20.687Z,21.45
2023-01-22T05:18:48.131Z,20.70
2023-01-22T05:21:15.658Z,21.17
2023-01-22T05:23:43.831Z,22.48
2023-01-22T05:26:11.549Z,21.48
2023-01-22T05:28:43.418Z,26.40
2023-01-22T05:31:42.933Z,42.90
2023-01-22T05:34:25.178Z,32.80
2023-01-22T05:36:53.392Z,23.55
2023-01-22T05:39:24.148Z,27.77
2023-01-22T05:41:54.831Z,26.20
2023-01-22T05:44:22.273Z,21.13
2023-01-22T05:46:53.015Z,20.70
2023-01-22T05:49:46.664Z,20.35
2023-01-22T05:52:16.217Z,23.30
2023-01-22T05:54:45.540Z,22.27
2023-01-22T05:57:12.892Z,21.90
2023-01-22T05:59:40.585Z,21.45
2023-01-22T06:02:09.122Z,21.75
2023-01-22T06:04:42.007Z,25.13
2023-01-22T06:07:23.158Z,26.45
2023-01-22T06:09:50.583Z,22.63
2023-01-22T06:12:18.527Z,22.90
2023-01-22T06:14:47.271Z,22.00
2023-01-22T06:17:15.675Z,23.02
2023-01-22T06:19:48.711Z,20.23
2023-01-22T06:22:19.247Z,20.25
2023-01-22T06:24:51.765Z,20.92
2023-01-22T06:27:22.267Z,17.88
2023-01-22T06:29:54.502Z,20.45
2023-01-22T06:32:21.998Z,18.02
2023-01-22T06:34:49.350Z,20.20
2023-01-22T06:37:18.192Z,19.67
2023-01-22T06:39:45.522Z,21.45
2023-01-22T06:42:22.481Z,23.27
2023-01-22T06:44:51.634Z,23.30
2023-01-22T06:47:20.649Z,23.40
2023-01-22T06:49:48.036Z,22.75
2023-01-22T06:52:15.378Z,23.00
2023-01-22T06:54:42.711Z,23.95
2023-01-22T06:57:10.983Z,23.92
2023-01-22T06:59:39.891Z,24.23
2023-01-22T07:02:07.458Z,23.90
2023-01-22T07:04:34.797Z,23.95
2023-01-22T07:07:02.523Z,21.58
2023-01-22T07:09:29.842Z,22.95
2023-01-22T07:11:58.565Z,20.13
2023-01-22T07:14:36.424Z,20.80
2023-01-22T07:17:04.126Z,18.92
2023-01-22T07:19:31.492Z,17.40
2023-01-22T07:21:59.511Z,21.55
2023-01-22T07:24:27.259Z,17.90
2023-01-22T07:26:54.552Z,17.13
2023-01-22T07:29:22.279Z,19.42
2023-01-22T07:31:49.949Z,18.17
2023-01-22T07:34:17.464Z,21.60
2023-01-22T07:36:46.606Z,21.08
2023-01-22T07:39:13.991Z,22.08
2023-01-22T07:41:42.003Z,21.20
2023-01-22T07:44:12.584Z,26.30
2023-01-22T07:46:40.078Z,22.10
2023-01-22T07:49:07.506Z,24.33
2023-01-22T07:51:34.944Z,26.10
2023-01-22T07:54:03.190Z,26.75
2023-01-22T07:56:30.593Z,25.33
2023-01-22T07:58:57.921Z,27.88
2023-01-22T08:01:25.247Z,28.35
2023-01-22T08:03:52.537Z,24.92
2023-01-22T08:06:22.530Z,27.75
2023-01-22T08:08:50.339Z,28.13
2023-01-22T08:11:17.802Z,26.98
2023-01-22T08:13:45.420Z,26.83
2023-01-22T08:16:12.892Z,28.45
2023-01-22T08:18:40.278Z,29.40
2023-01-22T08:21:07.707Z,29.95
2023-01-22T08:23:35.228Z,31.40
2023-01-22T08:26:04.057Z,29.40
2023-01-22T08:28:32.810Z,26.55
2023-01-22T08:31:02.254Z,31.92
2023-01-22T08:33:32.095Z,30.27
2023-01-22T08:35:59.599Z,33.13
2023-01-22T08:38:27.208Z,37.20
2023-01-22T08:40:54.535Z,39.35
2023-01-22T08:43:21.825Z,35.67
2023-01-22T08:45:49.889Z,38.60
2023-01-22T08:48:18.782Z,33.45
2023-01-22T08:50:46.229Z,32.95
2023-01-22T08:53:13.601Z,34.00
2023-01-22T08:55:40.901Z,34.70
2023-01-22T08:58:09.618Z,34.35
2023-01-22T09:00:37.007Z,31.77
2023-01-22T09:03:04.402Z,34.40
2023-01-22T09:05:31.762Z,39.78
2023-01-22T09:07:59.234Z,43.85
2023-01-22T09:10:26.764Z,36.15
2023-01-22T09:12:54.088Z,39.83
2023-01-22T09:15:22.698Z,32.65
2023-01-22T09:17:50.066Z,34.47
2023-01-22T09:20:18.010Z,37.28
2023-01-22T09:22:48.067Z,39.67
2023-01-22T09:25:16.090Z,40.33
2023-01-22T09:27:43.653Z,35.22
2023-01-22T09:30:12.447Z,34.55
2023-01-22T09:32:40.176Z,35.72
2023-01-22T09:35:08.467Z,36.70
2023-01-22T09:37:35.838Z,37.25
2023-01-22T09:40:03.567Z,33.40
2023-01-22T09:42:35.039Z,39.03
2023-01-22T09:45:11.234Z,36.30
2023-01-22T09:47:52.030Z,37.05
2023-01-22T09:50:23.392Z,35.88
2023-01-22T09:52:53.708Z,36.45
2023-01-22T09:55:23.827Z,35.83
2023-01-22T09:57:56.075Z,34.75
2023-01-22T10:00:41.159Z,30.80
2023-01-22T10:03:32.140Z,31.33
2023-01-22T10:06:10.834Z,32.10
2023-01-22T10:08:59.049Z,34.42
2023-01-22T10:11:26.970Z,35.78
2023-01-22T10:13:58.097Z,36.72
2023-01-22T10:16:26.713Z,40.10
2023-01-22T10:19:24.406Z,37.65
2023-01-22T10:22:06.451Z,35.67
2023-01-22T10:24:33.929Z,36.53
2023-01-22T10:27:16.463Z,37.65
2023-01-22T10:29:55.473Z,40.55
2023-01-22T10:32:28.915Z,37.70
2023-01-22T10:35:14.660Z,36.97
2023-01-22T10:37:53.569Z,39.15
2023-01-22T10:40:34.047Z,43.45
2023-01-22T10:43:15.734Z,43.22
2023-01-22T10:45:54.461Z,43.72
2023-01-22T10:48:22.869Z,42.22
2023-01-22T10:51:15.480Z,44.00
2023-01-22T10:53:52.932Z,41.75
2023-01-22T10:56:36.617Z,47.42
2023-01-22T10:59:24.468Z,41.80
2023-01-22T11:02:00.310Z,39.78
2023-01-22T11:04:35.811Z,45.75
2023-01-22T11:07:14.665Z,40.88
2023-01-22T11:09:44.789Z,47.55
2023-01-22T11:12:20.717Z,45.58
2023-01-22T11:14:57.923Z,43.55
2023-01-22T11:17:39.086Z,41.97
2023-01-22T11:20:36.939Z,43.35
2023-01-22T11:23:10.515Z,42.33
2023-01-22T11:25:45.768Z,42.58
2023-01-22T11:28:50.689Z,40.00
2023-01-22T11:31:39.437Z,42.40
2023-01-22T11:34:28.097Z,37.85
2023-01-22T11:37:20.146Z,39.08
2023-01-22T11:40:16.835Z,37.88
2023-01-22T11:43:14.729Z,41.50
2023-01-22T11:46:01.368Z,42.75
2023-01-22T11:48:38.153Z,38.80
2023-01-22T11:51:33.661Z,39.08
2023-01-22T11:54:28.769Z,37.08
2023-01-22T11:57:18.419Z,38.25
2023-01-22T11:59:54.443Z,37.20
2023-01-22T12:02:43.360Z,34.13
2023-01-22T12:05:48.403Z,35.08
2023-01-22T12:08:31.290Z,35.10
2023-01-22T12:11:20.051Z,34.63
2023-01-22T12:14:11.757Z,32.25
2023-01-22T12:17:06.573Z,33.45
2023-01-22T12:19:53.163Z,33.13
2023-01-22T12:22:40.711Z,31.08
2023-01-22T12:25:21.424Z,31.10
2023-01-22T12:28:10.304Z,31.27
2023-01-22T12:30:49.511Z,29.02
2023-01-22T12:33:22.185Z,21.88
2023-01-22T12:35:52.396Z,23.58
2023-01-22T12:38:47.639Z,19.48
2023-01-22T12:41:33.186Z,16.92
2023-01-22T12:44:14.266Z,16.35
2023-01-22T12:47:01.199Z,15.07
2023-01-22T12:49:29.195Z,15.68
2023-01-22T12:51:59.957Z,20.00
2023-01-22T12:54:36.929Z,19.60
2023-01-22T12:57:22.957Z,13.60
2023-01-22T12:59:56.478Z,11.40
2023-01-22T13:02:27.169Z,12.93
2023-01-22T13:05:18.931Z,13.25
2023-01-22T13:08:01.218Z,13.45
2023-01-22T13:10:37.039Z,15.70
2023-01-22T13:13:28.902Z,13.68
2023-01-22T13:16:04.372Z,12.38
2023-01-22T13:18:42.131Z,10.95
2023-01-22T13:21:16.781Z,9.52
2023-01-22T13:23:48.315Z,11.07
2023-01-22T13:26:23.035Z,11.60
2023-01-22T13:29:16.218Z,12.65
2023-01-22T13:31:58.326Z,11.18
2023-01-22T13:34:27.608Z,12.27
2023-01-22T13:37:04.464Z,11.43
2023-01-22T13:39:34.608Z,11.93
2023-01-22T13:42:05.327Z,10.63
2023-01-22T13:44:48.082Z,11.15
2023-01-22T13:47:34.075Z,10.40
2023-01-22T13:50:12.087Z,8.55
2023-01-22T13:52:39.784Z,7.60
2023-01-22T13:55:16.652Z,6.95
2023-01-22T13:57:57.463Z,8.55
2023-01-22T14:00:33.554Z,8.63
2023-01-22T14:03:01.703Z,8.23
2023-01-22T14:05:33.342Z,7.93
2023-01-22T14:08:10.431Z,8.55
2023-01-22T14:10:42.195Z,7.10
2023-01-22T14:13:15.559Z,7.55
2023-01-22T14:15:53.572Z,7.35
2023-01-22T14:18:22.555Z,8.13
2023-01-22T14:20:49.981Z,9.05
2023-01-22T14:23:17.314Z,9.88
2023-01-22T14:25:52.600Z,8.18
2023-01-22T14:28:21.820Z,7.03
2023-01-22T14:30:49.944Z,5.72
2023-01-22T14:33:35.458Z,6.95
2023-01-22T14:36:05.439Z,7.68
2023-01-22T14:38:32.895Z,9.50
2023-01-22T14:41:06.946Z,9.50
2023-01-22T14:43:38.113Z,9.20
2023-01-22T14:46:09.133Z,7.05
2023-01-22T14:48:36.474Z,6.28
2023-01-22T14:51:09.502Z,5.10
2023-01-22T14:53:37.438Z,6.35
2023-01-22T14:56:05.619Z,6.03
2023-01-22T14:58:33.141Z,5.78
2023-01-22T15:01:00.941Z,6.05
2023-01-22T15:03:31.368Z,11.05
2023-01-22T15:05:58.757Z,9.07
2023-01-22T15:08:26.557Z,8.18
2023-01-22T15:10:54.140Z,9.90
2023-01-22T15:13:21.680Z,8.85
2023-01-22T15:15:48.997Z,6.22
2023-01-22T15:18:19.155Z,6.70
2023-01-22T15:20:46.592Z,6.80
2023-01-22T15:23:13.906Z,7.05
2023-01-22T15:25:41.591Z,6.22
2023-01-22T15:28:08.905Z,5.75
2023-01-22T15:30:36.271Z,5.57
2023-01-22T15:33:03.730Z,5.82
2023-01-22T15:35:35.749Z,5.47
2023-01-22T15:38:05.306Z,6.88
2023-01-22T15:40:32.910Z,5.60
2023-01-22T15:43:02.206Z,4.68
2023-01-22T15:45:32.406Z,3.92
2023-01-22T15:48:01.545Z,3.72
2023-01-22T15:53:16.071Z,5.33
2023-01-22T15:55:50.148Z,6.10
2023-01-22T15:58:17.513Z,4.78
2023-01-22T16:00:44.855Z,5.03
2023-01-22T16:03:13.227Z,4.35
2023-01-22T16:05:41.010Z,4.40
2023-01-22T16:08:08.231Z,4.03
2023-01-22T16:10:35.589Z,5.00
2023-01-22T16:13:03.439Z,5.60
2023-01-22T16:15:30.607Z,6.22
2023-01-22T16:17:58.163Z,5.80
2023-01-22T16:20:25.879Z,5.82
2023-01-22T16:22:53.651Z,5.70
2023-01-22T16:25:21.039Z,6.25
2023-01-22T16:27:48.952Z,7.22
2023-01-22T16:30:17.779Z,7.55
2023-01-22T16:32:46.812Z,7.50
2023-01-22T16:35:15.877Z,7.57
2023-01-22T16:37:45.540Z,8.60
2023-01-22T16:40:18.520Z,8.68
2023-01-22T16:43:00.218Z,9.32
2023-01-22T16:45:27.888Z,13.02
2023-01-22T16:47:56.868Z,11.23
2023-01-22T16:50:28.013Z,12.95
2023-01-22T16:52:56.531Z,12.25
2023-01-22T16:55:24.457Z,11.40
2023-01-22T16:57:55.261Z,16.13
2023-01-22T17:00:24.299Z,12.40
2023-01-22T17:02:51.673Z,15.73
2023-01-22T17:05:21.754Z,20.08
2023-01-22T17:07:49.124Z,24.70
2023-01-22T17:10:16.855Z,22.77
2023-01-22T17:12:44.379Z,27.90
2023-01-22T17:15:12.034Z,33.40
2023-01-22T17:17:39.816Z,33.35
2023-01-22T17:20:07.854Z,26.35
2023-01-22T17:22:36.048Z,29.08
2023-01-22T17:25:04.238Z,32.85
2023-01-22T17:27:31.974Z,42.22
2023-01-22T17:30:00.736Z,34.55
2023-01-22T17:32:28.014Z,33.35
2023-01-22T17:34:55.856Z,34.80
2023-01-22T17:37:23.153Z,38.95
2023-01-22T17:39:53.153Z,40.50
2023-01-22T17:42:21.515Z,36.53
2023-01-22T17:44:48.874Z,39.85
2023-01-22T17:47:16.142Z,39.22
2023-01-22T17:49:43.412Z,40.03
2023-01-22T17:52:12.045Z,41.58
2023-01-22T17:54:40.085Z,39.58
2023-01-22T17:57:07.398Z,39.72
2023-01-22T17:59:34.735Z,36.75
2023-01-22T18:02:02.110Z,41.00
2023-01-22T18:04:34.494Z,43.25
2023-01-22T18:07:02.354Z,42.72
2023-01-22T18:09:30.543Z,40.10
2023-01-22T18:11:59.358Z,41.83
2023-01-22T18:14:31.050Z,43.00
2023-01-22T18:16:58.332Z,43.67
2023-01-22T18:19:25.823Z,43.42
2023-01-22T18:21:54.806Z,46.13
2023-01-22T18:24:24.042Z,46.40
2023-01-22T18:26:51.472Z,38.95
2023-01-22T18:29:19.267Z,38.83
2023-01-22T18:31:47.002Z,38.78
2023-01-22T18:34:15.035Z,33.72
2023-01-22T18:36:42.605Z,35.92
2023-01-22T18:39:18.517Z,33.08
2023-01-22T18:41:47.072Z,33.08
2023-01-22T18:44:16.253Z,43.22
2023-01-22T18:46:47.346Z,58.40
2023-01-22T18:49:18.724Z,53.92
2023-01-22T18:51:46.819Z,52.50
2023-01-22T18:54:14.735Z,47.03
2023-01-22T18:56:42.344Z,50.17
2023-01-22T18:59:11.749Z,49.50
2023-01-22T19:01:41.020Z,46.38
2023-01-22T19:04:11.786Z,46.30
2023-01-22T19:06:39.676Z,42.88
2023-01-22T19:09:12.265Z,46.90
2023-01-22T19:11:42.150Z,42.53
2023-01-22T19:14:13.404Z,39.00
2023-01-22T19:16:44.055Z,43.45
2023-01-22T19:19:13.570Z,40.88
2023-01-22T19:21:46.684Z,39.85
2023-01-22T19:24:17.189Z,47.47
2023-01-22T19:26:46.625Z,44.83
2023-01-22T19:29:17.476Z,50.35
2023-01-22T19:31:48.302Z,45.13
2023-01-22T19:34:23.608Z,47.60
2023-01-22T19:36:53.419Z,46.25
2023-01-22T19:39:21.429Z,44.00
2023-01-22T19:41:49.207Z,46.63
2023-01-22T19:44:17.534Z,47.80
2023-01-22T19:46:44.834Z,49.88
2023-01-22T19:49:13.156Z,45.75
2023-01-22T19:51:40.827Z,50.70
2023-01-22T19:54:10.168Z,47.15
2023-01-22T19:56:39.375Z,53.55
2023-01-22T19:59:11.274Z,52.72
2023-01-22T20:01:39.400Z,50.95
2023-01-22T20:04:12.010Z,52.40
2023-01-22T20:06:40.155Z,51.95
2023-01-22T20:09:07.639Z,56.80
2023-01-22T20:11:35.358Z,53.53
2023-01-22T20:14:03.014Z,60.42
2023-01-22T20:16:30.690Z,54.97
2023-01-22T20:18:58.451Z,52.65
2023-01-22T20:21:27.095Z,54.10
2023-01-22T20:23:54.882Z,59.35
2023-01-22T20:26:22.767Z,55.83
2023-01-22T20:28:50.833Z,55.75
2023-01-22T20:31:22.931Z,54.08
2023-01-22T20:33:56.782Z,54.40
2023-01-22T20:36:27.681Z,53.60
2023-01-22T20:38:56.567Z,51.55
2023-01-22T20:41:27.412Z,48.33
2023-01-22T20:43:55.294Z,47.58
2023-01-22T20:46:24.952Z,54.42
2023-01-22T20:48:53.410Z,45.92
2023-01-22T20:51:26.494Z,48.90
2023-01-22T20:53:55.621Z,51.15
2023-01-22T20:56:27.247Z,48.95
2023-01-22T20:59:06.051Z,50.13
2023-01-22T21:01:34.176Z,43.53
2023-01-22T21:04:02.477Z,42.17
2023-01-22T21:06:32.606Z,41.67
2023-01-22T21:09:01.229Z,39.50
2023-01-22T21:11:30.868Z,38.03
2023-01-22T21:14:00.445Z,35.45
2023-01-22T21:16:30.688Z,38.33
2023-01-22T21:19:07.099Z,37.80
2023-01-22T21:21:36.440Z,37.10
2023-01-22T21:24:04.067Z,41.20
2023-01-22T21:26:33.381Z,43.38
2023-01-22T21:29:04.272Z,45.38
2023-01-22T21:31:32.251Z,48.33
2023-01-22T21:34:04.354Z,52.13
2023-01-22T21:36:33.369Z,49.72
2023-01-22T21:39:01.929Z,49.40
2023-01-22T21:41:29.303Z,49.92
2023-01-22T21:44:15.508Z,49.83
2023-01-22T21:46:45.089Z,47.13
2023-01-22T21:49:19.993Z,44.20
2023-01-22T21:51:47.747Z,50.75
2023-01-22T21:54:17.241Z,53.65
2023-01-22T21:56:44.657Z,52.20
2023-01-22T21:59:12.123Z,52.83
2023-01-22T22:01:39.847Z,52.08
2023-01-22T22:04:09.215Z,51.55
2023-01-22T22:06:37.469Z,54.40
2023-01-22T22:09:08.162Z,53.05
2023-01-22T22:11:35.607Z,52.33
2023-01-22T22:14:05.679Z,53.40
2023-01-22T22:16:34.189Z,54.60
2023-01-22T22:19:01.481Z,53.08
2023-01-22T22:21:28.866Z,53.30
2023-01-22T22:23:59.091Z,52.58
2023-01-22T22:26:27.111Z,53.88
2023-01-22T22:28:55.172Z,52.85
2023-01-22T22:31:22.869Z,53.58
2023-01-22T22:33:52.240Z,52.15
2023-01-22T22:36:22.302Z,54.90
2023-01-22T22:38:50.069Z,54.45
2023-01-22T22:41:20.707Z,51.50
2023-01-22T22:43:51.842Z,52.60
2023-01-22T22:46:31.608Z,49.63
2023-01-22T22:49:02.635Z,51.03
2023-01-22T22:51:32.824Z,52.95
2023-01-22T22:54:02.838Z,45.97
2023-01-22T22:56:31.016Z,49.95
2023-01-22T22:59:00.831Z,51.10
2023-01-22T23:01:31.191Z,51.13
2023-01-22T23:03:59.081Z,46.33
2023-01-22T23:06:29.455Z,48.95
2023-01-22T23:09:11.889Z,50.20
2023-01-22T23:11:39.609Z,51.58
2023-01-22T23:14:07.855Z,46.00
2023-01-22T23:16:38.505Z,46.67
2023-01-22T23:19:27.225Z,40.88
2023-01-22T23:21:57.749Z,38.25
2023-01-22T23:24:26.113Z,39.13
2023-01-22T23:26:54.479Z,33.05
2023-01-22T23:29:24.219Z,32.80
2023-01-22T23:31:52.156Z,35.20
2023-01-22T23:34:21.564Z,37.22
2023-01-22T23:36:50.141Z,40.28
2023-01-22T23:39:19.763Z,39.63
2023-01-22T23:41:47.312Z,37.08
2023-01-22T23:44:14.626Z,39.83
2023-01-22T23:46:41.981Z,40.72
2023-01-22T23:49:10.500Z,38.72
2023-01-22T23:51:41.237Z,40.85
2023-01-22T23:54:09.060Z,43.90
2023-01-22T23:56:36.447Z,40.20
2023-01-22T23:59:06.885Z,38.83
